Terminal Aerodrome Forecast
Issued by NWS

Home | Current Version | Previous Version | Text Only | Print | Product List | Glossary On
Versions: 1 2 3 4 5 6 7 8 9 10 11 12 13 14 15
000
FTUS42 KFFC 170540
TAFRYY
TAF
KRYY 170540Z 1706/1806 32010KT 5SM -SN BR SCT010 BKN020 OVC050
      TEMPO 1706/1709 2SM -SN BR BKN008
     FM170900 32012G22KT P6SM SCT025
     FM171100 32012G22KT P6SM SKC
     FM171600 32017G28KT P6SM SKC
     FM180200 33010G18KT P6SM SKC=

USA.gov is the U.S. government's official web portal to all federal, state and local government web resources and services.